Portada
METAR-TAF:

METAR-TAF

Aeroports :

Aeroport Internacional de Fujairah

Fujairah, Emirats Àrabs Units

latitud: 25-06N, longitud: 056-20E, altitud: 28 m

Observació

L'informe es va fer fa 29 minuts, a les 01:00 UTC
Vent 1 kt del Oest
Temperatura 23°C
Humitat 69%
Pressió 1015 hPa
Visibilitat: 8000 m

METAR: OMFJ 010100Z 26001KT 8000 NSC 23/17 Q1015 A2998

Hora: 05:29 (01:29 UTC)

Pronòstic

L'informe es va fer fa 14 hores i 29 minuts, a les 11:00 UTC
Pronòstic vàlid del 30 a les 12 UTC al 01 a les 18 UTC
Vent 6 kt del Est
Visibilitat: 7000 m
Escasses núvols a una alçada de 2500 ft
Evolucionant progressivament
l' 30 a les 14 UTC al 30 a les 16 UTC
Vent 3 kt amb direcció variable
Evolucionant progressivament
l' 30 a les 20 UTC al 30 a les 22 UTC
Vent 5 kt del Oest/Nord-Oest
Evolucionant progressivament
l' 01 a les 06 UTC al 01 a les 08 UTC
Vent 7 kt del Est/Sud-Est

TAF: OMFJ 301100Z 3012/0118 09006KT 7000 FEW025 BECMG 3014/3016 VRB03KT NSC BECMG 3020/3022 30005KT BECMG 0106/0108 11007KT

Observacions i pronòstics meteorològics de més de 4000 aeroports (METAR i TAF).

Les estacions disponibles són els punts grocs i vermells al mapa.

Posi el ratolí al punt desitjat per veure el nom de l'estació.

Feu clic per veure les observacions i els pronòstics meteorològics.

Per canviar el mapa: feu clic els botons verds amb una creu de color negre per apropar; al botó verd amb un guió per allunyar la imatge; o en les fletxes verdes per a mapes adjacents.


METAR-TAF: